Villalbilla, Spain
Current Conditions -  °F | °C
As of 4:00 AM on Monday 22 Dec 2014 (Local Time) from LETO Reporting Station
Clear Clear  
Wind Chill: 34°   Ceiling: Unl
Heat Index: 34°   Visibility: 6mi
Dew Point: 30°   Wind: 3mph
Humidity: 87%   Direction: 50°NE
Pressure: 30.48"   Gusts: NA
Location:  40.43°N, 3.3°W
Report Text: LETO 220300Z 05003KT CAVOK 01/M01 Q1032 NOSIG
Loading
Personal Weather Stations






























Interactive Weather Map New forecast layout! Learn more

10-Day Weather Forecast

Advertisements
Track Severe Weather on mobile